createdAt,value
2024-04-18T00:00:55.234Z,96880.00
2024-04-18T00:03:22.970Z,96865.00
2024-04-18T00:05:55.725Z,96891.00
2024-04-18T00:08:23.326Z,96880.00
2024-04-18T00:10:55.929Z,96882.00
2024-04-18T00:13:38.309Z,96884.00
2024-04-18T00:16:09.290Z,96873.00
2024-04-18T00:18:36.919Z,96877.00
2024-04-18T00:21:28.433Z,96883.00
2024-04-18T00:23:56.147Z,96897.00
2024-04-18T00:26:46.366Z,96897.00
2024-04-18T00:29:15.529Z,96896.00
2024-04-18T00:31:45.895Z,96896.00
2024-04-18T00:34:35.816Z,96884.00
2024-04-18T00:37:06.313Z,96884.00
2024-04-18T00:39:55.266Z,96886.00
2024-04-18T00:42:39.054Z,96871.00
2024-04-18T00:45:10.344Z,96892.00
2024-04-18T00:47:44.875Z,96890.00
2024-04-18T00:50:16.062Z,96888.00
2024-04-18T00:52:47.883Z,96884.00
2024-04-18T00:55:33.137Z,96882.00
2024-04-18T00:58:11.724Z,96886.00
2024-04-18T01:00:46.538Z,96886.00
2024-04-18T01:03:36.319Z,96903.00
2024-04-18T01:06:09.392Z,96890.00
2024-04-18T01:09:02.994Z,96896.00
2024-04-18T01:11:31.963Z,96902.00
2024-04-18T01:14:11.950Z,96896.00
2024-04-18T01:16:58.036Z,96889.00
2024-04-18T01:19:28.255Z,96913.00
2024-04-18T01:21:59.458Z,96895.00
2024-04-18T01:24:35.051Z,96894.00
2024-04-18T01:27:05.949Z,96896.00
2024-04-18T01:29:46.078Z,96875.00
2024-04-18T01:32:34.347Z,96883.00
2024-04-18T01:35:04.688Z,96895.00
2024-04-18T01:37:50.334Z,96899.00
2024-04-18T01:40:18.229Z,96888.00
2024-04-18T01:43:11.080Z,96898.00
2024-04-18T01:45:58.562Z,96898.00
2024-04-18T01:48:28.884Z,96890.00
2024-04-18T01:51:15.102Z,96891.00
2024-04-18T01:53:45.155Z,96885.00
2024-04-18T01:56:18.935Z,96890.00
2024-04-18T01:58:51.613Z,96888.00
2024-04-18T02:01:25.095Z,96879.00
2024-04-18T02:03:55.412Z,96897.00
2024-04-18T02:06:23.006Z,96892.00
2024-04-18T02:08:53.167Z,96896.00
2024-04-18T02:11:45.016Z,96893.00
2024-04-18T02:14:17.058Z,96895.00
2024-04-18T02:16:47.387Z,96905.00
2024-04-18T02:19:24.189Z,96904.00
2024-04-18T02:22:12.770Z,96905.00
2024-04-18T02:25:05.029Z,96914.00
2024-04-18T02:27:35.284Z,96909.00
2024-04-18T02:30:26.957Z,96912.00
2024-04-18T02:33:13.905Z,96905.00
2024-04-18T02:35:47.842Z,96900.00
2024-04-18T02:38:37.246Z,96907.00
2024-04-18T02:41:06.468Z,96904.00
2024-04-18T02:43:53.076Z,96903.00
2024-04-18T02:46:24.323Z,96910.00
2024-04-18T02:49:13.223Z,96904.00
2024-04-18T02:51:56.154Z,96916.00
2024-04-18T02:54:45.208Z,96901.00
2024-04-18T02:57:13.401Z,96912.00
2024-04-18T02:59:43.710Z,96923.00
2024-04-18T03:02:26.484Z,96922.00
2024-04-18T03:05:16.671Z,96913.00
2024-04-18T03:07:44.165Z,96908.00
2024-04-18T03:10:14.234Z,96916.00
2024-04-18T03:12:59.856Z,96907.00
2024-04-18T03:15:48.875Z,96925.00
2024-04-18T03:18:19.064Z,96914.00
2024-04-18T03:20:55.948Z,96922.00
2024-04-18T03:23:44.406Z,96918.00
2024-04-18T03:26:31.801Z,96925.00
2024-04-18T03:29:01.939Z,96916.00
2024-04-18T03:31:31.964Z,96925.00
2024-04-18T03:34:02.016Z,96927.00
2024-04-18T03:36:34.342Z,96931.00
2024-04-18T03:39:04.808Z,96931.00
2024-04-18T03:41:34.916Z,96929.00
2024-04-18T03:44:25.343Z,96931.00
2024-04-18T03:46:55.506Z,96929.00
2024-04-18T03:49:39.539Z,96929.00
2024-04-18T03:52:07.406Z,96933.00
2024-04-18T03:54:55.188Z,96931.00
2024-04-18T03:57:40.979Z,96948.00
2024-04-18T04:00:12.122Z,96952.00
2024-04-18T04:02:40.956Z,96952.00
2024-04-18T04:05:13.776Z,96953.00
2024-04-18T04:07:41.327Z,96950.00
2024-04-18T04:10:11.776Z,96952.00
2024-04-18T04:12:41.158Z,96953.00
2024-04-18T04:15:12.080Z,96964.00
2024-04-18T04:17:59.662Z,96975.00
2024-04-18T04:20:48.163Z,96962.00
2024-04-18T04:23:15.810Z,96971.00
2024-04-18T04:26:06.392Z,96961.00
2024-04-18T04:28:33.945Z,96966.00
2024-04-18T04:31:04.106Z,96975.00
2024-04-18T04:33:33.944Z,96973.00
2024-04-18T04:36:06.874Z,96975.00
2024-04-18T04:38:34.321Z,96989.00
2024-04-18T04:41:07.061Z,97003.00
2024-04-18T04:43:34.510Z,96999.00
2024-04-18T04:46:17.856Z,96990.00
2024-04-18T04:48:45.432Z,97010.00
2024-04-18T04:51:19.079Z,97001.00
2024-04-18T04:54:04.755Z,97017.00
2024-04-18T04:56:44.009Z,97017.00
2024-04-18T04:59:20.179Z,97022.00
2024-04-18T05:01:53.211Z,97019.00
2024-04-18T05:04:40.911Z,97033.00
2024-04-18T05:07:33.846Z,97026.00
2024-04-18T05:10:20.118Z,97033.00
2024-04-18T05:12:50.262Z,97032.00
2024-04-18T05:15:36.255Z,97036.00
2024-04-18T05:18:10.654Z,97038.00
2024-04-18T05:20:38.949Z,97039.00
2024-04-18T05:23:11.895Z,97042.00
2024-04-18T05:25:39.518Z,97043.00
2024-04-18T05:28:31.662Z,97061.00
2024-04-18T05:31:03.393Z,97061.00
2024-04-18T05:33:34.338Z,97050.00
2024-04-18T05:36:04.803Z,97053.00
2024-04-18T05:38:37.468Z,97060.00
2024-04-18T05:41:08.001Z,97067.00
2024-04-18T05:43:53.680Z,97072.00
2024-04-18T05:46:23.978Z,97065.00
2024-04-18T05:48:54.485Z,97073.00
2024-04-18T05:51:24.881Z,97087.00
2024-04-18T05:54:16.327Z,97092.00
2024-04-18T05:57:04.730Z,97084.00
2024-04-18T05:59:53.329Z,97085.00
2024-04-18T06:02:23.432Z,97097.00
2024-04-18T06:04:51.042Z,97087.00
2024-04-18T06:07:41.222Z,97095.00
2024-04-18T06:10:15.089Z,97097.00
2024-04-18T06:12:45.320Z,97109.00
2024-04-18T06:15:15.408Z,97102.00
2024-04-18T06:17:45.638Z,97102.00
2024-04-18T06:20:15.741Z,97111.00
2024-04-18T06:22:45.988Z,97108.00
2024-04-18T06:25:32.312Z,97112.00
2024-04-18T06:28:02.788Z,97119.00
2024-04-18T06:30:33.025Z,97128.00
2024-04-18T06:33:03.433Z,97120.00
2024-04-18T06:35:33.599Z,97131.00
2024-04-18T06:38:03.708Z,97125.00
2024-04-18T06:40:36.431Z,97125.00
2024-04-18T06:43:06.754Z,97139.00
2024-04-18T06:45:39.568Z,97132.00
2024-04-18T06:48:11.724Z,97138.00
2024-04-18T06:50:42.762Z,97140.00
2024-04-18T06:53:13.518Z,97135.00
2024-04-18T06:55:43.731Z,97138.00
2024-04-18T06:58:13.771Z,97139.00
2024-04-18T07:00:44.161Z,97132.00
2024-04-18T07:03:17.149Z,97147.00
2024-04-18T07:05:53.543Z,97147.00
2024-04-18T07:08:28.094Z,97158.00
2024-04-18T07:11:01.548Z,97167.00
2024-04-18T07:13:33.389Z,97150.00
2024-04-18T07:16:25.147Z,97160.00
2024-04-18T07:18:58.658Z,97160.00
2024-04-18T07:21:28.907Z,97163.00
2024-04-18T07:24:18.008Z,97164.00
2024-04-18T07:26:53.341Z,97173.00
2024-04-18T07:29:25.135Z,97165.00
2024-04-18T07:31:55.569Z,97162.00
2024-04-18T07:34:25.731Z,97179.00
2024-04-18T07:36:55.946Z,97189.00
2024-04-18T07:39:26.194Z,97194.00
2024-04-18T07:41:58.913Z,97188.00
2024-04-18T07:44:28.981Z,97183.00
2024-04-18T07:46:59.098Z,97207.00
2024-04-18T07:49:29.307Z,97212.00
2024-04-18T07:52:06.467Z,97200.00
2024-04-18T07:54:42.453Z,97212.00
2024-04-18T07:57:15.821Z,97210.00
2024-04-18T07:59:47.036Z,97210.00
2024-04-18T08:02:19.286Z,97215.00
2024-04-18T08:04:55.968Z,97214.00
2024-04-18T08:07:34.990Z,97218.00
2024-04-18T08:10:11.239Z,97212.00
2024-04-18T08:12:50.712Z,97217.00
2024-04-18T08:18:13.632Z,97237.00
2024-04-18T08:20:43.769Z,97240.00
2024-04-18T08:23:20.607Z,97241.00
2024-04-18T08:25:50.770Z,97221.00
2024-04-18T08:28:23.421Z,97235.00
2024-04-18T08:30:55.200Z,97228.00
2024-04-18T08:33:25.387Z,97240.00
2024-04-18T08:35:55.391Z,97236.00
2024-04-18T08:38:25.872Z,97241.00
2024-04-18T08:40:56.132Z,97232.00
2024-04-18T08:43:29.013Z,97247.00
2024-04-18T08:46:00.807Z,97244.00
2024-04-18T08:48:35.128Z,97247.00
2024-04-18T08:51:08.573Z,97260.00
2024-04-18T08:53:38.779Z,97246.00
2024-04-18T08:56:17.282Z,97256.00
2024-04-18T08:58:50.031Z,97259.00
2024-04-18T09:01:20.631Z,97257.00
2024-04-18T09:03:50.673Z,97264.00
2024-04-18T09:06:20.757Z,97264.00
2024-04-18T09:08:53.376Z,97270.00
2024-04-18T09:11:24.098Z,97262.00
2024-04-18T09:13:56.803Z,97256.00
2024-04-18T09:16:27.972Z,97275.00
2024-04-18T09:18:58.069Z,97269.00
2024-04-18T09:21:33.735Z,97274.00
2024-04-18T09:24:04.089Z,97276.00
2024-04-18T09:26:34.375Z,97271.00
2024-04-18T09:29:07.288Z,97276.00
2024-04-18T09:31:43.614Z,97277.00
2024-04-18T09:34:17.864Z,97265.00
2024-04-18T09:36:49.206Z,97274.00
2024-04-18T09:39:29.097Z,97271.00
2024-04-18T09:42:11.898Z,97274.00
2024-04-18T09:44:47.640Z,97280.00
2024-04-18T09:47:18.942Z,97288.00
2024-04-18T09:49:51.180Z,97269.00
2024-04-18T09:52:22.856Z,97277.00
2024-04-18T09:54:55.064Z,97270.00
2024-04-18T09:57:28.656Z,97274.00
2024-04-18T10:00:03.088Z,97272.00
2024-04-18T10:02:42.937Z,97281.00
2024-04-18T10:05:13.330Z,97275.00
2024-04-18T10:07:44.200Z,97279.00
2024-04-18T10:10:15.481Z,97277.00
2024-04-18T10:12:45.797Z,97280.00
2024-04-18T10:15:21.472Z,97283.00
2024-04-18T10:17:51.613Z,97288.00
2024-04-18T10:20:21.714Z,97290.00
2024-04-18T10:23:01.471Z,97294.00
2024-04-18T10:25:31.660Z,97285.00
2024-04-18T10:28:01.762Z,97282.00
2024-04-18T10:30:35.658Z,97305.00
2024-04-18T10:33:06.184Z,97305.00
2024-04-18T10:35:36.581Z,97286.00
2024-04-18T10:38:07.146Z,97294.00
2024-04-18T10:40:38.128Z,97301.00
2024-04-18T10:43:14.360Z,97303.00
2024-04-18T10:45:48.901Z,97311.00
2024-04-18T10:48:20.060Z,97309.00
2024-04-18T10:50:53.132Z,97301.00
2024-04-18T10:53:24.001Z,97296.00
2024-04-18T10:55:55.702Z,97300.00
2024-04-18T10:58:25.904Z,97301.00
2024-04-18T11:01:04.950Z,97303.00
2024-04-18T11:03:35.491Z,97289.00
2024-04-18T11:06:06.532Z,97294.00
2024-04-18T11:08:36.774Z,97289.00
2024-04-18T11:11:07.649Z,97296.00
2024-04-18T11:13:38.422Z,97290.00
2024-04-18T11:16:11.253Z,97295.00
2024-04-18T11:18:42.254Z,97306.00
2024-04-18T11:21:12.668Z,97290.00
2024-04-18T11:23:47.362Z,97295.00
2024-04-18T11:26:22.488Z,97285.00
2024-04-18T11:28:54.406Z,97287.00
2024-04-18T11:31:27.338Z,97292.00
2024-04-18T11:33:58.174Z,97291.00
2024-04-18T11:36:29.385Z,97300.00
2024-04-18T11:39:04.435Z,97300.00
2024-04-18T11:41:34.971Z,97292.00
2024-04-18T11:44:06.161Z,97291.00
2024-04-18T11:46:38.773Z,97291.00
2024-04-18T11:49:09.019Z,97293.00
2024-04-18T11:51:39.145Z,97307.00
2024-04-18T11:54:09.289Z,97295.00
2024-04-18T11:56:39.475Z,97309.00
2024-04-18T11:59:26.850Z,97304.00
2024-04-18T12:01:59.480Z,97305.00
2024-04-18T12:04:29.899Z,97308.00
2024-04-18T12:07:00.088Z,97311.00
2024-04-18T12:09:30.568Z,97296.00
2024-04-18T12:12:03.483Z,97301.00
2024-04-18T12:14:48.966Z,97299.00
2024-04-18T12:17:34.586Z,97290.00
2024-04-18T12:20:20.998Z,97295.00
2024-04-18T12:22:51.049Z,97284.00
2024-04-18T12:25:22.337Z,97289.00
2024-04-18T12:27:50.915Z,97286.00
2024-04-18T12:30:34.339Z,97303.00
2024-04-18T12:33:25.477Z,97320.00
2024-04-18T12:35:55.891Z,97322.00
2024-04-18T12:38:26.039Z,97339.00
2024-04-18T12:41:05.598Z,97319.00
2024-04-18T12:43:36.947Z,97329.00
2024-04-18T12:46:27.342Z,97324.00
2024-04-18T12:49:00.442Z,97326.00
2024-04-18T12:51:30.735Z,97328.00
2024-04-18T12:54:00.877Z,97324.00
2024-04-18T12:56:50.775Z,97332.00
2024-04-18T12:59:27.187Z,97316.00
2024-04-18T13:01:57.646Z,97325.00
2024-04-18T13:04:32.513Z,97340.00
2024-04-18T13:07:02.895Z,97330.00
2024-04-18T13:09:33.645Z,97338.00
2024-04-18T13:12:05.181Z,97329.00
2024-04-18T13:14:54.040Z,97336.00
2024-04-18T13:17:24.305Z,97345.00
2024-04-18T13:19:57.176Z,97340.00
2024-04-18T13:22:27.219Z,97332.00
2024-04-18T13:24:57.338Z,97329.00
2024-04-18T13:27:28.541Z,97322.00
2024-04-18T13:29:58.692Z,97319.00
2024-04-18T13:32:36.009Z,97318.00
2024-04-18T13:35:10.151Z,97321.00
2024-04-18T13:37:40.557Z,97317.00
2024-04-18T13:40:20.005Z,97319.00
2024-04-18T13:43:02.779Z,97322.00
2024-04-18T13:45:34.786Z,97327.00
2024-04-18T13:48:05.967Z,97322.00
2024-04-18T13:50:49.146Z,97317.00
2024-04-18T13:53:19.237Z,97320.00
2024-04-18T13:55:51.550Z,97312.00
2024-04-18T13:58:23.990Z,97313.00
2024-04-18T14:01:03.016Z,97312.00
2024-04-18T14:03:34.420Z,97316.00
2024-04-18T14:06:12.422Z,97323.00
2024-04-18T14:08:45.619Z,97317.00
2024-04-18T14:11:32.011Z,97321.00
2024-04-18T14:14:11.047Z,97313.00
2024-04-18T14:17:17.151Z,97327.00
2024-04-18T14:20:06.648Z,97332.00
2024-04-18T14:22:50.475Z,97330.00
2024-04-18T14:25:20.519Z,97322.00
2024-04-18T14:28:20.224Z,97329.00
2024-04-18T14:31:17.999Z,97324.00
2024-04-18T14:33:51.163Z,97313.00
2024-04-18T14:36:21.388Z,97328.00
2024-04-18T14:38:54.096Z,97331.00
2024-04-18T14:41:24.151Z,97326.00
2024-04-18T14:43:57.638Z,97330.00
2024-04-18T14:46:29.528Z,97338.00
2024-04-18T14:49:19.444Z,97332.00
2024-04-18T14:51:57.855Z,97353.00
2024-04-18T14:54:33.663Z,97354.00
2024-04-18T14:57:03.955Z,97366.00
2024-04-18T14:59:39.982Z,97373.00
2024-04-18T15:02:10.112Z,97383.00
2024-04-18T15:05:00.503Z,97389.00
2024-04-18T15:07:28.176Z,97386.00
2024-04-18T15:10:00.948Z,97398.00
2024-04-18T15:12:51.046Z,97382.00
2024-04-18T15:15:26.747Z,97397.00
2024-04-18T15:17:56.966Z,97392.00
2024-04-18T15:20:27.090Z,97401.00
2024-04-18T15:23:12.202Z,97393.00
2024-04-18T15:25:44.976Z,97397.00
2024-04-18T15:28:16.835Z,97400.00
2024-04-18T15:30:47.268Z,97405.00
2024-04-18T15:33:23.989Z,97394.00
2024-04-18T15:35:55.983Z,97397.00
2024-04-18T15:38:26.387Z,97385.00
2024-04-18T15:41:18.758Z,97396.00
2024-04-18T15:43:48.859Z,97380.00
2024-04-18T15:46:37.441Z,97389.00
2024-04-18T15:49:10.689Z,97389.00
2024-04-18T15:51:40.979Z,97376.00
2024-04-18T15:54:11.497Z,97385.00
2024-04-18T15:56:44.171Z,97389.00
2024-04-18T15:59:34.563Z,97398.00
2024-04-18T16:02:09.866Z,97392.00
2024-04-18T16:04:46.812Z,97405.00
2024-04-18T16:07:16.991Z,97410.00
2024-04-18T16:10:16.311Z,97421.00
2024-04-18T16:12:58.142Z,97417.00
2024-04-18T16:15:28.371Z,97418.00
2024-04-18T16:18:04.474Z,97420.00
2024-04-18T16:20:35.331Z,97430.00
2024-04-18T16:23:06.930Z,97427.00
2024-04-18T16:25:40.234Z,97447.00
2024-04-18T16:28:13.536Z,97441.00
2024-04-18T16:31:02.612Z,97445.00
2024-04-18T16:33:32.817Z,97444.00
2024-04-18T16:36:02.988Z,97451.00
2024-04-18T16:38:52.998Z,97448.00
2024-04-18T16:41:29.336Z,97464.00
2024-04-18T16:44:02.141Z,97442.00
2024-04-18T16:46:32.207Z,97444.00
2024-04-18T16:49:02.303Z,97452.00
2024-04-18T16:51:32.421Z,97465.00
2024-04-18T16:54:02.538Z,97442.00
2024-04-18T16:56:58.435Z,97443.00
2024-04-18T16:59:50.616Z,97456.00
2024-04-18T17:02:20.687Z,97451.00
2024-04-18T17:04:48.217Z,97447.00
2024-04-18T17:07:18.644Z,97470.00
2024-04-18T17:10:08.853Z,97449.00
2024-04-18T17:12:58.802Z,97461.00
2024-04-18T17:15:54.319Z,97452.00
2024-04-18T17:18:24.588Z,97471.00
2024-04-18T17:21:01.881Z,97482.00
2024-04-18T17:23:32.439Z,97479.00
2024-04-18T17:26:02.528Z,97479.00
2024-04-18T17:28:32.493Z,97469.00
2024-04-18T17:31:08.347Z,97481.00
2024-04-18T17:33:38.590Z,97488.00
2024-04-18T17:36:10.126Z,97494.00
2024-04-18T17:38:50.321Z,97495.00
2024-04-18T17:41:32.666Z,97492.00
2024-04-18T17:44:21.734Z,97483.00
2024-04-18T17:47:02.239Z,97492.00
2024-04-18T17:49:32.400Z,97497.00
2024-04-18T17:52:02.539Z,97498.00
2024-04-18T17:54:30.028Z,97505.00
2024-04-18T17:57:00.034Z,97503.00
2024-04-18T17:59:30.094Z,97495.00
2024-04-18T18:02:02.937Z,97504.00
2024-04-18T18:04:33.201Z,97523.00
2024-04-18T18:07:03.308Z,97529.00
2024-04-18T18:09:33.333Z,97533.00
2024-04-18T18:12:03.306Z,97520.00
2024-04-18T18:14:33.328Z,97528.00
2024-04-18T18:17:06.120Z,97533.00
2024-04-18T18:19:36.305Z,97529.00
2024-04-18T18:22:07.101Z,97534.00
2024-04-18T18:24:34.702Z,97527.00
2024-04-18T18:27:06.215Z,97544.00
2024-04-18T18:29:34.113Z,97550.00
2024-04-18T18:32:14.956Z,97544.00
2024-04-18T18:34:43.867Z,97561.00
2024-04-18T18:37:13.910Z,97568.00
2024-04-18T18:39:43.112Z,97568.00
2024-04-18T18:42:13.570Z,97554.00
2024-04-18T18:44:41.134Z,97559.00
2024-04-18T18:47:13.835Z,97562.00
2024-04-18T18:49:50.102Z,97558.00
2024-04-18T18:52:21.964Z,97574.00
2024-04-18T18:54:49.658Z,97569.00
2024-04-18T18:57:19.754Z,97579.00
2024-04-18T18:59:47.350Z,97580.00
2024-04-18T19:02:20.047Z,97575.00
2024-04-18T19:05:02.740Z,97583.00
2024-04-18T19:07:32.937Z,97566.00
2024-04-18T19:10:01.594Z,97570.00
2024-04-18T19:12:31.626Z,97573.00
2024-04-18T19:15:01.410Z,97584.00
2024-04-18T19:17:37.898Z,97576.00
2024-04-18T19:20:06.203Z,97572.00
2024-04-18T19:22:36.318Z,97577.00
2024-04-18T19:25:04.324Z,97591.00
2024-04-18T19:27:34.495Z,97579.00
2024-04-18T19:30:02.867Z,97582.00
2024-04-18T19:32:35.632Z,97576.00
2024-04-18T19:35:22.986Z,97579.00
2024-04-18T19:37:53.110Z,97594.00
2024-04-18T19:40:40.517Z,97582.00
2024-04-18T19:43:11.054Z,97584.00
2024-04-18T19:45:39.054Z,97585.00
2024-04-18T19:51:05.093Z,97581.00
2024-04-18T19:53:35.499Z,97583.00
2024-04-18T19:56:03.481Z,97581.00
2024-04-18T19:58:36.453Z,97578.00
2024-04-18T20:01:06.795Z,97576.00
2024-04-18T20:03:41.550Z,97586.00
2024-04-18T20:06:09.840Z,97583.00
2024-04-18T20:08:55.508Z,97609.00
2024-04-18T20:11:23.128Z,97601.00
2024-04-18T20:13:54.437Z,97599.00
2024-04-18T20:16:22.457Z,97593.00
2024-04-18T20:19:16.023Z,97599.00
2024-04-18T20:21:44.979Z,97593.00
2024-04-18T20:24:18.372Z,97599.00
2024-04-18T20:27:05.527Z,97596.00
2024-04-18T20:29:48.148Z,97597.00
2024-04-18T20:32:22.071Z,97616.00
2024-04-18T20:34:56.214Z,97603.00
2024-04-18T20:37:25.555Z,97605.00
2024-04-18T20:39:58.882Z,97617.00
2024-04-18T20:42:27.438Z,97616.00
2024-04-18T20:45:04.611Z,97625.00
2024-04-18T20:47:32.855Z,97625.00
2024-04-18T20:50:09.141Z,97622.00
2024-04-18T20:52:38.457Z,97618.00
2024-04-18T20:55:12.096Z,97599.00
2024-04-18T20:57:39.756Z,97608.00
2024-04-18T21:00:28.470Z,97612.00
2024-04-18T21:02:57.038Z,97605.00
2024-04-18T21:05:29.886Z,97610.00
2024-04-18T21:07:57.621Z,97609.00
2024-04-18T21:10:27.846Z,97605.00
2024-04-18T21:12:55.354Z,97601.00
2024-04-18T21:15:25.442Z,97600.00
2024-04-18T21:17:55.147Z,97596.00
2024-04-18T21:20:25.468Z,97606.00
2024-04-18T21:22:55.724Z,97599.00
2024-04-18T21:25:25.914Z,97598.00
2024-04-18T21:27:53.608Z,97598.00
2024-04-18T21:30:23.866Z,97593.00
2024-04-18T21:32:54.341Z,97597.00
2024-04-18T21:35:35.413Z,97592.00
2024-04-18T21:38:05.907Z,97594.00
2024-04-18T21:40:36.529Z,97599.00
2024-04-18T21:43:04.733Z,97590.00
2024-04-18T21:45:35.613Z,97597.00
2024-04-18T21:48:05.040Z,97592.00
2024-04-18T21:50:35.616Z,97607.00
2024-04-18T21:53:08.908Z,97601.00
2024-04-18T21:55:41.999Z,97606.00
2024-04-18T21:58:09.703Z,97611.00
2024-04-18T22:00:39.987Z,97594.00
2024-04-18T22:03:07.753Z,97590.00
2024-04-18T22:05:45.655Z,97593.00
2024-04-18T22:08:17.672Z,97599.00
2024-04-18T22:10:54.988Z,97579.00
2024-04-18T22:13:28.065Z,97598.00
2024-04-18T22:15:58.252Z,97590.00
2024-04-18T22:18:26.949Z,97591.00
2024-04-18T22:20:57.729Z,97582.00
2024-04-18T22:23:27.963Z,97580.00
2024-04-18T22:25:58.055Z,97588.00
2024-04-18T22:28:25.610Z,97576.00
2024-04-18T22:31:02.792Z,97581.00
2024-04-18T22:33:30.321Z,97576.00
2024-04-18T22:36:00.795Z,97585.00
2024-04-18T22:38:30.875Z,97576.00
2024-04-18T22:41:00.894Z,97568.00
2024-04-18T22:43:28.250Z,97566.00
2024-04-18T22:45:58.344Z,97586.00
2024-04-18T22:48:25.827Z,97581.00
2024-04-18T22:50:57.307Z,97580.00
2024-04-18T22:53:24.765Z,97592.00
2024-04-18T22:56:01.089Z,97574.00
2024-04-18T22:58:28.585Z,97588.00
2024-04-18T23:01:08.015Z,97591.00
2024-04-18T23:03:35.672Z,97592.00
2024-04-18T23:06:18.065Z,97589.00
2024-04-18T23:08:45.567Z,97586.00
2024-04-18T23:11:19.029Z,97597.00
2024-04-18T23:13:46.619Z,97585.00
2024-04-18T23:16:16.702Z,97576.00
2024-04-18T23:18:44.631Z,97570.00
2024-04-18T23:21:14.859Z,97577.00
2024-04-18T23:23:42.531Z,97570.00
2024-04-18T23:26:12.701Z,97571.00
2024-04-18T23:28:43.605Z,97586.00
2024-04-18T23:31:13.642Z,97575.00
2024-04-18T23:33:41.027Z,97573.00
2024-04-18T23:36:11.816Z,97576.00
2024-04-18T23:38:41.870Z,97570.00
2024-04-18T23:41:09.309Z,97558.00
2024-04-18T23:43:39.360Z,97560.00
2024-04-18T23:46:09.400Z,97557.00
2024-04-18T23:48:39.598Z,97560.00
2024-04-18T23:51:07.124Z,97556.00
2024-04-18T23:53:41.895Z,97562.00
2024-04-18T23:56:09.215Z,97556.00
2024-04-18T23:58:39.415Z,97560.00
